Time;durP1;ratioP1;P1;durP2;ratioP2;P2;SDS_P1;SDS_P2;PMS_P1;PMS_P2;Temp;Humidity;BMP_temperature;BMP_pressure;BME280_temperature;BME280_humidity;BME280_pressure;Samples;Min_cycle;Max_cycle;Signal;HPM_P1;HPM_P2
2023/06/20 00:00:17;;;;;;;11.80;10.30;;;;;;;16.04;77.01;100520.42;79025;278;3027053;-70
2023/06/20 00:03:12;;;;;;;12.30;10.30;;;;;;;16.04;76.88;100521.35;79040;277;3027322;-72
2023/06/20 00:05:49;;;;;;;11.40;10.40;;;;;;;16.00;76.94;100520.11;79700;277;3011478;-72
2023/06/20 00:08:24;;;;;;;10.30;9.50;;;;;;;15.99;76.80;100518.60;78965;277;3027253;-72
2023/06/20 00:11:01;;;;;;;10.40;9.30;;;;;;;15.98;76.88;100519.00;79718;277;3012892;-72
2023/06/20 00:13:39;;;;;;;12.40;10.80;;;;;;;15.98;76.89;100517.41;79699;277;3011457;-72
2023/06/20 00:16:20;;;;;;;11.90;10.20;;;;;;;15.97;76.86;100521.70;78950;277;3027423;-72
2023/06/20 00:18:56;;;;;;;14.90;10.30;;;;;;;15.96;76.85;100523.02;79004;277;3027107;-72
2023/06/20 00:21:32;;;;;;;12.00;9.40;;;;;;;15.95;77.11;100521.48;78965;277;3028891;-73
2023/06/20 00:24:09;;;;;;;10.70;9.50;;;;;;;15.95;77.04;100522.69;79750;277;3011822;-72
2023/06/20 00:26:45;;;;;;;11.10;10.00;;;;;;;15.95;77.07;100522.00;78951;277;3027932;-72
2023/06/20 00:29:21;;;;;;;11.10;10.00;;;;;;;15.94;77.11;100526.44;79765;278;3013223;-72
2023/06/20 00:31:56;;;;;;;12.40;10.60;;;;;;;15.93;77.20;100524.54;78971;277;3028613;-72
2023/06/20 00:34:32;;;;;;;11.00;10.00;;;;;;;15.92;77.16;100528.72;79757;278;3012769;-72
2023/06/20 00:37:09;;;;;;;10.30;9.40;;;;;;;15.89;77.35;100530.77;79726;277;3011549;-72
2023/06/20 00:39:44;;;;;;;10.90;10.00;;;;;;;15.89;77.44;100531.17;78968;278;3027654;-72
2023/06/20 00:42:24;;;;;;;12.70;9.80;;;;;;;15.88;77.51;100531.59;79777;278;3011363;-73
2023/06/20 00:44:59;;;;;;;13.10;10.60;;;;;;;15.86;77.53;100533.64;79038;278;3027627;-72
2023/06/20 00:47:36;;;;;;;10.80;9.80;;;;;;;15.83;77.51;100535.00;79779;277;3011558;-72
2023/06/20 00:50:12;;;;;;;14.10;10.60;;;;;;;15.81;77.56;100536.87;79019;277;3028291;-72
2023/06/20 00:52:48;;;;;;;10.10;9.10;;;;;;;15.81;77.46;100537.95;79086;277;3027608;-72
2023/06/20 00:55:23;;;;;;;10.20;9.30;;;;;;;15.75;77.40;100537.73;78983;278;3028143;-71
2023/06/20 00:58:00;;;;;;;11.20;10.20;;;;;;;15.69;77.55;100539.70;79721;278;3012845;-72
2023/06/20 01:00:38;;;;;;;11.20;10.10;;;;;;;15.66;77.97;100539.66;78957;279;3027722;-73
2023/06/20 01:03:14;;;;;;;10.20;9.30;;;;;;;15.67;78.27;100536.48;78968;278;3027276;-70
2023/06/20 01:05:55;;;;;;;10.50;9.40;;;;;;;15.66;78.14;100539.13;78955;278;3027158;-70
2023/06/20 01:08:34;;;;;;;10.60;9.60;;;;;;;15.67;78.28;100544.38;78958;278;3027500;-72
2023/06/20 01:11:14;;;;;;;10.90;9.80;;;;;;;15.68;78.38;100547.67;78957;278;3026681;-73
2023/06/20 01:13:54;;;;;;;10.70;9.70;;;;;;;15.67;78.56;100546.99;78882;279;3027452;-72
2023/06/20 01:16:33;;;;;;;11.00;10.00;;;;;;;15.66;78.56;100541.75;78968;278;3027685;-70
2023/06/20 01:19:16;;;;;;;11.20;10.10;;;;;;;15.66;78.76;100539.85;78994;278;3027699;-72
2023/06/20 01:21:56;;;;;;;10.60;9.70;;;;;;;15.64;78.88;100537.32;78988;278;3027232;-72
2023/06/20 01:24:36;;;;;;;11.10;9.90;;;;;;;15.62;78.80;100536.73;79046;278;3027504;-72
2023/06/20 01:27:14;;;;;;;11.00;9.90;;;;;;;15.61;78.81;100534.66;79057;278;3028945;-72
2023/06/20 01:29:54;;;;;;;12.00;10.70;;;;;;;15.59;78.88;100536.88;79020;278;3028002;-72
2023/06/20 01:32:29;;;;;;;11.30;10.00;;;;;;;15.57;78.90;100537.70;79020;278;3027096;-72
2023/06/20 01:35:09;;;;;;;11.40;10.30;;;;;;;15.55;79.18;100539.73;78966;278;3027456;-72
2023/06/20 01:37:45;;;;;;;11.50;10.50;;;;;;;15.53;79.14;100536.86;78994;278;3027101;-71
2023/06/20 01:40:21;;;;;;;11.50;10.30;;;;;;;15.52;79.27;100537.29;78956;278;3027940;-72
2023/06/20 01:42:58;;;;;;;10.80;9.90;;;;;;;15.51;79.25;100540.30;78888;278;3029342;-72
2023/06/20 01:45:33;;;;;;;11.50;10.40;;;;;;;15.51;79.61;100543.31;78861;279;3029696;-72
2023/06/20 01:48:09;;;;;;;11.10;10.00;;;;;;;15.51;79.72;100544.38;78969;278;3027253;-71
2023/06/20 01:50:44;;;;;;;12.40;11.30;;;;;;;15.48;79.66;100545.19;78953;278;3027961;-73
2023/06/20 01:53:20;;;;;;;11.60;10.40;;;;;;;15.46;79.84;100543.92;79724;278;3011590;-72
2023/06/20 01:55:57;;;;;;;11.10;10.00;;;;;;;15.43;79.66;100539.84;79703;278;3011478;-72
2023/06/20 01:58:33;;;;;;;11.80;10.40;;;;;;;15.42;79.70;100542.21;78993;279;3028253;-72
2023/06/20 02:01:08;;;;;;;11.70;10.10;;;;;;;15.40;79.65;100542.33;79007;278;3028761;-71
2023/06/20 02:03:44;;;;;;;12.20;10.90;;;;;;;15.37;79.68;100543.67;79725;278;3012695;-72
2023/06/20 02:06:20;;;;;;;11.40;10.40;;;;;;;15.36;80.14;100540.79;78976;278;3029063;-71
2023/06/20 02:08:56;;;;;;;11.70;10.60;;;;;;;15.34;80.19;100541.95;79018;279;3028609;-71
2023/06/20 02:11:31;;;;;;;11.90;10.60;;;;;;;15.32;80.16;100542.60;78940;279;3028294;-72
2023/06/20 02:14:07;;;;;;;11.00;10.00;;;;;;;15.30;80.17;100539.02;78987;279;3028412;-73
2023/06/20 02:16:43;;;;;;;11.60;10.50;;;;;;;15.30;80.24;100539.56;78979;278;3026522;-72
2023/06/20 02:19:18;;;;;;;12.00;10.90;;;;;;;15.31;79.99;100540.03;78951;279;3027369;-72
2023/06/20 02:21:54;;;;;;;12.30;11.20;;;;;;;15.31;80.46;100543.19;78941;278;3027026;-70
2023/06/20 02:24:31;;;;;;;11.10;10.10;;;;;;;15.30;80.03;100539.90;78896;279;3027477;-72
2023/06/20 02:27:06;;;;;;;12.30;11.00;;;;;;;15.27;80.06;100538.84;78953;279;3027429;-70
2023/06/20 02:29:43;;;;;;;11.80;10.80;;;;;;;15.26;80.29;100542.56;78942;278;3027981;-73
2023/06/20 02:32:18;;;;;;;12.20;11.10;;;;;;;15.24;80.25;100538.98;78963;278;3027385;-72
2023/06/20 02:34:53;;;;;;;10.90;9.90;;;;;;;15.21;80.23;100541.96;78967;278;3026852;-73
2023/06/20 02:37:29;;;;;;;12.90;11.70;;;;;;;15.20;80.56;100540.79;78953;278;3027839;-72
2023/06/20 02:40:06;;;;;;;12.50;11.30;;;;;;;15.20;80.97;100542.52;79008;278;3028166;-71
2023/06/20 02:42:42;;;;;;;12.10;11.00;;;;;;;15.20;80.88;100545.67;78976;278;3027110;-72
2023/06/20 02:45:18;;;;;;;12.50;11.40;;;;;;;15.21;80.88;100547.91;78995;278;3026872;-70
2023/06/20 02:48:07;;;;;;;12.50;11.30;;;;;;;15.23;80.75;100549.95;79046;278;3027536;-72
2023/06/20 02:50:49;;;;;;;12.40;11.40;;;;;;;15.23;80.57;100551.18;78934;278;3027005;-73
2023/06/20 02:53:44;;;;;;;12.80;11.70;;;;;;;15.23;80.77;100554.14;79032;278;3027381;-70
2023/06/20 02:56:19;;;;;;;13.10;11.70;;;;;;;15.22;80.69;100553.32;78976;278;3028564;-72
2023/06/20 02:58:56;;;;;;;13.00;11.60;;;;;;;15.22;80.95;100554.36;79787;278;3011125;-72
2023/06/20 03:01:32;;;;;;;12.90;11.60;;;;;;;15.27;81.33;100557.48;78968;278;3027601;-72
2023/06/20 03:04:07;;;;;;;13.00;11.70;;;;;;;15.30;81.38;100560.10;78973;278;3028445;-72
2023/06/20 03:06:43;;;;;;;12.60;11.60;;;;;;;15.34;81.40;100554.98;78953;278;3027786;-72
2023/06/20 03:09:19;;;;;;;12.60;11.40;;;;;;;15.38;81.31;100554.06;79754;278;3011563;-71
2023/06/20 03:11:54;;;;;;;12.70;11.50;;;;;;;15.39;81.36;100551.72;78940;278;3026927;-72
2023/06/20 03:14:33;;;;;;;13.90;11.70;;;;;;;15.43;81.65;100552.73;79718;278;3011569;-71
2023/06/20 03:17:08;;;;;;;12.80;11.40;;;;;;;15.46;81.67;100554.26;78949;278;3027688;-73
2023/06/20 03:19:44;;;;;;;13.70;12.40;;;;;;;15.52;81.98;100551.33;78937;302;3027628;-70
2023/06/20 03:22:19;;;;;;;13.00;11.70;;;;;;;15.60;82.46;100550.49;78091;267;3028102;-70
2023/06/20 03:24:55;;;;;;;12.80;11.70;;;;;;;15.68;82.25;100552.58;79703;278;3011494;-72
2023/06/20 03:27:31;;;;;;;13.20;11.90;;;;;;;15.72;82.18;100553.73;79702;278;3011427;-72
2023/06/20 03:30:10;;;;;;;14.00;12.60;;;;;;;15.75;82.34;100551.48;79726;278;3011463;-72
2023/06/20 03:32:46;;;;;;;13.00;11.80;;;;;;;15.78;82.25;100553.27;78956;278;3028064;-72
2023/06/20 03:35:22;;;;;;;12.10;11.00;;;;;;;15.83;82.55;100550.17;79728;278;3011599;-73
2023/06/20 03:37:57;;;;;;;12.20;11.10;;;;;;;16.02;83.17;100549.05;78980;278;3026780;-72
2023/06/20 03:40:33;;;;;;;12.70;11.50;;;;;;;16.48;84.04;100545.46;79730;278;3011215;-72
2023/06/20 03:43:10;;;;;;;11.90;10.90;;;;;;;17.09;85.23;100543.17;79755;279;3011576;-72
2023/06/20 03:45:46;;;;;;;12.80;11.60;;;;;;;17.81;85.32;100546.88;79701;279;3013555;-71
2023/06/20 03:48:21;;;;;;;11.80;10.60;;;;;;;18.57;83.99;100554.39;78984;278;3029086;-73
2023/06/20 03:50:57;;;;;;;11.80;10.80;;;;;;;19.29;82.13;100558.86;79732;279;3011562;-72
2023/06/20 03:53:33;;;;;;;11.40;10.40;;;;;;;19.99;79.85;100561.05;79749;278;3013141;-71
2023/06/20 03:56:10;;;;;;;10.90;9.90;;;;;;;20.55;76.93;100555.10;79680;279;3011510;-71
2023/06/20 03:58:46;;;;;;;11.30;9.90;;;;;;;20.89;74.92;100555.80;78979;278;3028441;-71
2023/06/20 04:01:24;;;;;;;10.60;9.80;;;;;;;21.38;73.30;100561.03;79650;279;3012919;-72
2023/06/20 04:03:59;;;;;;;11.80;10.60;;;;;;;21.85;71.30;100563.23;78973;278;3028190;-71
2023/06/20 04:06:34;;;;;;;10.60;9.60;;;;;;;22.30;69.43;100559.87;78955;278;3028366;-72
2023/06/20 04:09:10;;;;;;;10.10;9.40;;;;;;;22.78;67.56;100561.48;79740;278;3011543;-72
2023/06/20 04:11:46;;;;;;;10.60;9.70;;;;;;;23.24;65.36;100563.01;78950;279;3026539;-71
2023/06/20 04:14:41;;;;;;;10.80;9.70;;;;;;;23.55;64.09;100565.59;78964;278;3028859;-73
2023/06/20 04:17:17;;;;;;;9.40;8.40;;;;;;;24.01;62.87;100565.74;79652;278;3011452;-73
2023/06/20 04:19:54;;;;;;;10.70;9.70;;;;;;;24.36;60.61;100565.73;79742;278;3011348;-73
2023/06/20 04:22:30;;;;;;;9.90;9.00;;;;;;;24.55;59.79;100562.17;79649;279;3011364;-72
2023/06/20 04:25:07;;;;;;;10.90;9.90;;;;;;;24.95;58.89;100567.13;79728;278;3011589;-72
2023/06/20 04:27:42;;;;;;;9.80;8.70;;;;;;;25.01;58.12;100567.98;78972;278;3027744;-72
2023/06/20 04:30:18;;;;;;;10.20;9.30;;;;;;;24.75;57.37;100571.90;78977;278;3027957;-72
2023/06/20 04:32:54;;;;;;;10.40;9.50;;;;;;;24.49;56.66;100572.05;79754;278;3011375;-71
2023/06/20 04:35:31;;;;;;;9.60;8.80;;;;;;;24.33;57.26;100571.67;79713;275;3011575;-71
2023/06/20 04:38:07;;;;;;;11.50;10.40;;;;;;;24.06;57.61;100572.02;78973;279;3028564;-72
2023/06/20 04:40:43;;;;;;;10.90;9.60;;;;;;;23.77;58.26;100572.86;79708;278;3011568;-72
2023/06/20 04:43:22;;;;;;;10.40;9.50;;;;;;;23.65;58.82;100573.20;79715;278;3012488;-72
2023/06/20 04:45:57;;;;;;;10.70;9.90;;;;;;;23.59;59.38;100577.72;78932;278;3027097;-72
2023/06/20 04:48:35;;;;;;;10.70;9.70;;;;;;;23.60;60.53;100573.89;78973;278;3027467;-72
2023/06/20 04:51:11;;;;;;;10.30;9.30;;;;;;;23.88;61.52;100572.40;78951;278;3028444;-71
2023/06/20 04:53:49;;;;;;;10.40;9.50;;;;;;;24.55;61.20;100573.59;78983;279;3028384;-72
2023/06/20 04:56:24;;;;;;;10.60;9.70;;;;;;;25.15;59.48;100568.27;78918;279;3027493;-72
2023/06/20 04:59:00;;;;;;;10.70;9.80;;;;;;;25.14;58.21;100567.09;79719;278;3011360;-71
2023/06/20 05:01:37;;;;;;;10.60;9.70;;;;;;;25.08;57.48;100569.64;78930;278;3026627;-72
2023/06/20 05:04:13;;;;;;;10.00;9.20;;;;;;;25.04;58.11;100576.42;79003;278;3028714;-73
2023/06/20 05:06:49;;;;;;;10.00;9.20;;;;;;;25.20;58.81;100573.52;79730;278;3013060;-73
2023/06/20 05:09:25;;;;;;;10.10;9.10;;;;;;;25.27;57.62;100577.86;79741;278;3012629;-73
2023/06/20 05:12:00;;;;;;;10.60;9.50;;;;;;;25.09;57.04;100577.98;79026;278;3027290;-76
2023/06/20 05:14:37;;;;;;;9.50;8.80;;;;;;;24.89;57.22;100578.56;79812;278;3011436;-77
2023/06/20 05:17:12;;;;;;;10.00;9.20;;;;;;;24.64;57.42;100574.39;78962;280;3028600;-77
2023/06/20 05:19:48;;;;;;;9.70;8.90;;;;;;;24.40;58.02;100575.92;79011;278;3026784;-78
2023/06/20 05:22:23;;;;;;;9.90;9.10;;;;;;;24.21;58.88;100579.20;78975;278;3028032;-78
2023/06/20 05:24:58;;;;;;;10.10;9.30;;;;;;;24.06;59.82;100579.73;79067;278;3027462;-78
2023/06/20 05:27:35;;;;;;;10.60;9.70;;;;;;;23.94;60.30;100582.80;79711;278;3011567;-74
2023/06/20 05:30:13;;;;;;;10.50;9.50;;;;;;;23.82;61.29;100582.61;78978;278;3027822;-73
2023/06/20 05:32:49;;;;;;;11.10;10.10;;;;;;;23.72;61.82;100579.02;78948;278;3028658;-74
2023/06/20 05:35:28;;;;;;;10.30;9.50;;;;;;;23.67;62.18;100579.15;78957;278;3027646;-74
2023/06/20 05:38:03;;;;;;;10.20;9.30;;;;;;;23.68;62.37;100578.70;78971;278;3027181;-73
2023/06/20 05:40:39;;;;;;;10.30;9.40;;;;;;;23.70;62.64;100576.05;78970;279;3027498;-73
2023/06/20 05:43:15;;;;;;;10.60;9.50;;;;;;;23.75;63.28;100573.83;79679;278;3012878;-73
2023/06/20 05:45:52;;;;;;;10.80;9.90;;;;;;;23.87;63.49;100578.39;78953;271;3027573;-74
2023/06/20 05:48:30;;;;;;;11.00;10.00;;;;;;;23.97;61.75;100577.00;79758;278;3012590;-74
2023/06/20 05:51:05;;;;;;;10.90;10.00;;;;;;;24.06;60.16;100580.21;78937;278;3027008;-74
2023/06/20 05:53:42;;;;;;;11.40;10.40;;;;;;;24.21;60.07;100579.96;78994;278;3026963;-73
2023/06/20 05:56:18;;;;;;;15.20;13.40;;;;;;;24.39;59.04;100579.05;78909;279;3029848;-73
2023/06/20 05:58:54;;;;;;;16.90;15.10;;;;;;;24.51;57.62;100581.48;79003;278;3026835;-74
2023/06/20 06:01:29;;;;;;;17.00;13.90;;;;;;;24.56;56.33;100582.38;79027;279;3028692;-74
2023/06/20 06:04:05;;;;;;;13.80;12.10;;;;;;;24.63;57.27;100581.09;78997;279;3027569;-73
2023/06/20 06:06:40;;;;;;;12.30;11.10;;;;;;;24.82;59.02;100579.98;78984;279;3028903;-73
2023/06/20 06:09:16;;;;;;;12.90;11.80;;;;;;;25.19;58.49;100577.70;78949;278;3027219;-74
2023/06/20 06:11:52;;;;;;;13.00;11.80;;;;;;;25.50;56.79;100582.02;78989;278;3027799;-74
2023/06/20 06:14:27;;;;;;;12.40;10.30;;;;;;;25.77;56.02;100584.79;78951;279;3028084;-72
2023/06/20 06:17:02;;;;;;;11.00;9.90;;;;;;;25.98;54.92;100586.27;78985;279;3027301;-72
2023/06/20 06:19:38;;;;;;;21.00;10.60;;;;;;;26.16;53.16;100586.27;78975;279;3027261;-75
2023/06/20 06:22:14;;;;;;;37.80;11.40;;;;;;;26.35;52.03;100582.91;79714;279;3013772;-73
2023/06/20 06:24:51;;;;;;;32.00;12.00;;;;;;;26.55;51.07;100581.56;79738;279;3012974;-74
2023/06/20 06:27:27;;;;;;;34.50;11.80;;;;;;;26.73;50.69;100579.74;78992;279;3026933;-75
2023/06/20 06:30:03;;;;;;;38.30;13.80;;;;;;;26.84;49.96;100579.52;78996;279;3026728;-71
2023/06/20 06:32:40;;;;;;;58.20;15.20;;;;;;;26.87;49.54;100580.27;78961;279;3027495;-71
2023/06/20 06:35:16;;;;;;;43.80;14.10;;;;;;;26.96;48.85;100579.38;78952;279;3027510;-74
2023/06/20 06:37:53;;;;;;;25.50;10.80;;;;;;;27.04;48.80;100579.23;78986;279;3027238;-73
2023/06/20 06:40:28;;;;;;;23.50;9.80;;;;;;;27.09;47.93;100579.81;78965;279;3027889;-72
2023/06/20 06:43:04;;;;;;;27.60;10.20;;;;;;;27.11;47.56;100582.61;79771;279;3011639;-73
2023/06/20 06:45:40;;;;;;;27.50;10.50;;;;;;;27.12;48.02;100582.30;79026;275;3026736;-73
2023/06/20 06:48:15;;;;;;;25.10;11.10;;;;;;;27.21;47.42;100582.89;79071;278;3028177;-74
2023/06/20 06:50:51;;;;;;;29.20;13.20;;;;;;;27.34;47.95;100587.78;79020;279;3026879;-74
2023/06/20 06:53:27;;;;;;;40.60;15.40;;;;;;;27.49;48.31;100583.64;78968;280;3027385;-73
2023/06/20 06:56:02;;;;;;;33.70;13.60;;;;;;;27.64;48.30;100582.71;79012;279;3028684;-72
2023/06/20 06:58:38;;;;;;;33.80;11.10;;;;;;;27.75;47.79;100586.61;79767;279;3011342;-74
2023/06/20 07:01:14;;;;;;;17.10;9.90;;;;;;;27.86;47.54;100587.48;79044;279;3027156;-74
2023/06/20 07:03:51;;;;;;;26.20;10.00;;;;;;;27.99;47.77;100588.34;79732;278;3011360;-73
2023/06/20 07:06:27;;;;;;;31.60;10.90;;;;;;;28.27;47.72;100592.11;78856;278;3027807;-74
2023/06/20 07:09:02;;;;;;;34.00;11.00;;;;;;;28.87;46.54;100588.45;78859;279;3027404;-74
2023/06/20 07:11:37;;;;;;;24.10;9.80;;;;;;;29.18;45.11;100585.45;78938;279;3027742;-74
2023/06/20 07:14:13;;;;;;;26.80;10.10;;;;;;;29.66;43.70;100584.77;78984;279;3027355;-72
2023/06/20 07:16:50;;;;;;;24.80;10.10;;;;;;;30.21;41.90;100580.89;79709;278;3011513;-72
2023/06/20 07:19:25;;;;;;;21.60;9.30;;;;;;;30.35;41.34;100581.80;79005;278;3026887;-74
2023/06/20 07:22:02;;;;;;;22.40;9.00;;;;;;;30.77;40.91;100576.09;79724;278;3011356;-74
2023/06/20 07:24:38;;;;;;;17.60;9.00;;;;;;;31.60;40.29;100581.75;78873;280;3027226;-73
2023/06/20 07:27:14;;;;;;;14.00;7.20;;;;;;;32.40;39.57;100583.64;79665;278;3011442;-72
2023/06/20 07:29:50;;;;;;;12.50;7.00;;;;;;;33.09;38.31;100587.95;78945;279;3027068;-75
2023/06/20 07:32:25;;;;;;;5.20;4.70;;;;;;;33.86;36.44;100587.63;78988;278;3028790;-75
2023/06/20 07:35:01;;;;;;;5.40;4.90;;;;;;;34.34;33.07;100594.58;79035;279;3027154;-75
2023/06/20 07:37:38;;;;;;;6.00;5.50;;;;;;;34.69;33.33;100593.70;78940;279;3027766;-75
2023/06/20 07:40:15;;;;;;;7.10;5.50;;;;;;;35.14;31.85;100593.52;78996;278;3027632;-76
2023/06/20 07:42:50;;;;;;;6.20;5.60;;;;;;;35.46;31.31;100592.24;79014;270;3027985;-75
2023/06/20 07:45:29;;;;;;;6.20;5.50;;;;;;;35.96;30.23;100592.30;79012;278;3028682;-74
2023/06/20 07:48:04;;;;;;;8.10;5.40;;;;;;;36.36;30.03;100593.02;79017;278;3028039;-75
2023/06/20 07:50:40;;;;;;;8.20;6.50;;;;;;;36.79;30.13;100597.86;79701;279;3011560;-75
2023/06/20 07:53:16;;;;;;;8.50;7.00;;;;;;;37.08;28.83;100599.38;79616;280;3011587;-74
2023/06/20 07:55:55;;;;;;;6.70;6.00;;;;;;;37.47;28.32;100601.34;79689;278;3011421;-76
2023/06/20 07:58:31;;;;;;;12.30;6.50;;;;;;;37.96;26.75;100597.33;79003;278;3027580;-79
2023/06/20 08:01:08;;;;;;;12.10;6.30;;;;;;;38.26;25.79;100598.90;79026;278;3027037;-80
2023/06/20 08:03:45;;;;;;;11.60;6.30;;;;;;;37.90;25.30;100599.02;78990;279;3026864;-79
2023/06/20 08:06:21;;;;;;;11.60;6.80;;;;;;;37.27;25.79;100602.02;78998;279;3027415;-79
2023/06/20 08:09:00;;;;;;;9.00;7.20;;;;;;;36.58;26.21;100599.19;79026;279;3027848;-79
2023/06/20 08:11:38;;;;;;;10.30;7.30;;;;;;;36.35;27.42;100600.49;79027;279;3027259;-78
2023/06/20 08:14:14;;;;;;;9.60;7.30;;;;;;;36.38;27.82;100595.42;78964;279;3027455;-77
2023/06/20 08:16:49;;;;;;;7.10;6.10;;;;;;;36.57;26.34;100600.88;78979;279;3027223;-77
2023/06/20 08:19:27;;;;;;;6.00;5.50;;;;;;;36.67;26.54;100604.36;78943;279;3028333;-75
2023/06/20 08:25:45;;;;;;;6.70;5.80;;;;;;;37.53;25.80;100604.76;79204;276;3027298;-78
2023/06/20 08:28:20;;;;;;;5.80;5.10;;;;;;;37.69;24.95;100603.99;79244;276;3027274;-77
2023/06/20 08:30:56;;;;;;;7.50;6.70;;;;;;;37.63;25.02;100603.27;79879;277;3011574;-77
2023/06/20 08:33:33;;;;;;;9.70;6.80;;;;;;;37.93;25.25;100604.17;79970;277;3011750;-79
2023/06/20 08:36:09;;;;;;;14.70;7.80;;;;;;;38.36;24.25;100601.09;79112;277;3027626;-80
2023/06/20 08:38:45;;;;;;;9.20;7.60;;;;;;;38.26;24.69;100598.85;79262;277;3026857;-79
2023/06/20 08:41:22;;;;;;;9.00;6.90;;;;;;;37.81;25.08;100602.15;79100;277;3027478;-80
2023/06/20 08:43:58;;;;;;;11.30;7.10;;;;;;;37.43;25.40;100603.27;79061;278;3027128;-78
2023/06/20 08:46:33;;;;;;;8.20;6.50;;;;;;;37.24;26.40;100604.15;79167;277;3028691;-78
2023/06/20 08:49:09;;;;;;;7.80;6.40;;;;;;;37.46;26.22;100605.13;79121;277;3028096;-77
2023/06/20 08:51:49;;;;;;;8.50;7.00;;;;;;;37.88;25.59;100602.28;78959;278;3028749;-73
2023/06/20 08:54:24;;;;;;;9.60;6.80;;;;;;;38.17;24.82;100599.99;78955;278;3027205;-73
2023/06/20 08:57:01;;;;;;;10.10;7.20;;;;;;;38.21;24.00;100605.61;79842;277;3011542;-73
2023/06/20 08:59:37;;;;;;;14.40;8.00;;;;;;;37.88;24.36;100605.57;79110;277;3027480;-73
2023/06/20 09:02:16;;;;;;;11.80;7.60;;;;;;;38.08;24.19;100605.32;79110;277;3027623;-73
2023/06/20 09:05:03;;;;;;;9.10;7.60;;;;;;;38.33;24.02;100605.55;79095;277;3026913;-73
2023/06/20 09:07:41;;;;;;;16.00;7.70;;;;;;;38.67;23.58;100607.64;79121;277;3027285;-74
2023/06/20 09:10:24;;;;;;;9.20;7.30;;;;;;;38.68;23.75;100604.38;78980;277;3027078;-74
2023/06/20 09:13:01;;;;;;;12.40;7.70;;;;;;;38.56;23.15;100602.02;79144;277;3027317;-73
2023/06/20 09:15:38;;;;;;;12.20;7.10;;;;;;;38.35;23.20;100603.72;79062;277;3027786;-74
2023/06/20 09:18:16;;;;;;;7.90;7.20;;;;;;;38.22;24.18;100600.87;79111;277;3028533;-74
2023/06/20 09:20:51;;;;;;;7.90;7.10;;;;;;;38.22;23.57;100599.51;78959;273;3028181;-74
2023/06/20 09:23:32;;;;;;;8.30;6.20;;;;;;;37.80;24.05;100596.99;79099;277;3027000;-74
2023/06/20 09:26:18;;;;;;;9.80;6.90;;;;;;;37.65;24.28;100599.35;79037;277;3027457;-74
2023/06/20 09:28:54;;;;;;;10.50;7.50;;;;;;;37.42;24.64;100600.27;78993;277;3026741;-74
2023/06/20 09:31:30;;;;;;;9.40;7.60;;;;;;;37.24;24.53;100601.64;79755;277;3011235;-74
2023/06/20 09:34:06;;;;;;;8.90;7.10;;;;;;;37.10;25.11;100594.41;79005;277;3027112;-74
2023/06/20 09:36:42;;;;;;;7.80;7.10;;;;;;;36.99;24.82;100595.71;79752;277;3011427;-74
2023/06/20 09:39:21;;;;;;;9.20;7.30;;;;;;;37.02;24.61;100596.98;78975;277;3027073;-73
2023/06/20 09:41:57;;;;;;;10.90;7.40;;;;;;;37.03;25.00;100592.34;78999;266;3026981;-73
2023/06/20 09:44:32;;;;;;;9.70;7.20;;;;;;;36.99;24.44;100595.16;78953;277;3027661;-73
2023/06/20 09:47:08;;;;;;;9.80;8.00;;;;;;;36.68;23.93;100593.56;79014;277;3027143;-74
2023/06/20 09:49:44;;;;;;;14.90;7.60;;;;;;;36.35;24.73;100588.73;78992;277;3028586;-74
2023/06/20 09:52:20;;;;;;;8.00;7.10;;;;;;;36.02;25.03;100589.61;79787;277;3012675;-74
2023/06/20 09:55:00;;;;;;;9.50;7.10;;;;;;;35.66;25.34;100592.96;79076;277;3027654;-74
2023/06/20 09:57:40;;;;;;;8.30;7.00;;;;;;;35.54;25.35;100589.91;79036;277;3028482;-73
2023/06/20 10:00:18;;;;;;;8.20;6.70;;;;;;;35.24;26.33;100597.55;79015;277;3027100;-73
2023/06/20 10:02:54;;;;;;;7.10;6.40;;;;;;;35.02;26.67;100594.14;79062;277;3027514;-73
2023/06/20 10:05:33;;;;;;;10.40;6.80;;;;;;;34.81;27.08;100599.89;78967;277;3028162;-73
2023/06/20 10:08:08;;;;;;;7.50;6.80;;;;;;;34.51;26.71;100595.34;79021;277;3028374;-73
2023/06/20 10:10:44;;;;;;;7.80;7.10;;;;;;;34.16;26.68;100588.45;79721;277;3011515;-73
2023/06/20 10:13:20;;;;;;;7.70;7.00;;;;;;;33.88;27.16;100585.63;79013;277;3028886;-73
2023/06/20 10:15:59;;;;;;;7.80;7.00;;;;;;;33.71;28.01;100583.16;78996;277;3027097;-73
2023/06/20 10:18:42;;;;;;;8.40;7.20;;;;;;;33.78;28.28;100584.47;78968;277;3026950;-73
2023/06/20 10:21:18;;;;;;;7.80;6.80;;;;;;;33.81;28.49;100582.64;78959;277;3029096;-73
2023/06/20 10:23:54;;;;;;;7.50;6.70;;;;;;;33.71;28.00;100582.58;78961;277;3026552;-74
2023/06/20 10:26:34;;;;;;;8.40;6.90;;;;;;;33.63;28.30;100582.67;79686;277;3011470;-74
2023/06/20 10:29:10;;;;;;;7.50;6.70;;;;;;;33.54;28.17;100579.14;78858;277;3027059;-73
2023/06/20 10:32:04;;;;;;;8.40;7.10;;;;;;;33.46;28.65;100574.86;78965;277;3028511;-73
2023/06/20 10:34:41;;;;;;;8.20;6.60;;;;;;;33.50;28.93;100573.28;78973;277;3027551;-73
2023/06/20 10:37:38;;;;;;;6.70;6.00;;;;;;;33.55;29.46;100574.55;78976;277;3028398;-72
2023/06/20 10:40:28;;;;;;;6.90;6.30;;;;;;;33.88;30.41;100575.14;78901;279;3027108;-73
2023/06/20 10:43:04;;;;;;;;;;;;;;;34.25;29.31;100578.02;79055;277;3027640;-73
2023/06/20 10:45:42;;;;;;;8.10;6.70;;;;;;;34.24;28.63;100575.09;78969;277;3026876;-73
2023/06/20 10:48:21;;;;;;;8.70;7.00;;;;;;;33.99;28.45;100576.06;79009;279;3028067;-72
2023/06/20 10:51:03;;;;;;;9.50;7.30;;;;;;;33.65;28.14;100579.91;79001;266;3027261;-72
2023/06/20 10:53:39;;;;;;;7.20;6.60;;;;;;;33.30;28.84;100580.73;79012;277;3026775;-72
2023/06/20 10:56:27;;;;;;;7.40;6.70;;;;;;;32.96;29.91;100582.78;78993;277;3027779;-73
2023/06/20 10:59:08;;;;;;;7.30;6.80;;;;;;;32.57;29.62;100581.40;78996;277;3028056;-72
2023/06/20 11:01:46;;;;;;;7.40;6.70;;;;;;;32.32;30.57;100582.02;78968;277;3027090;-72
2023/06/20 11:04:21;;;;;;;7.40;6.70;;;;;;;32.09;31.39;100578.35;78995;277;3028205;-72
2023/06/20 11:06:57;;;;;;;9.00;7.40;;;;;;;31.98;32.02;100578.35;79766;277;3011371;-72
2023/06/20 11:09:33;;;;;;;9.20;7.90;;;;;;;31.78;31.08;100577.17;79791;277;3011546;-73
2023/06/20 11:12:12;;;;;;;8.90;7.60;;;;;;;31.60;31.37;100578.72;79804;277;3011516;-73
2023/06/20 11:14:45;;;;;;;;;;;;;;;31.49;32.55;100578.16;78921;279;3027183;-73
2023/06/20 11:17:19;;;;;;;7.30;6.70;;;;;;;31.34;32.76;100575.41;80269;277;3011466;-73
2023/06/20 11:19:54;;;;;;;7.90;6.80;;;;;;;31.28;32.60;100569.55;78987;278;3028198;-73
2023/06/20 11:22:30;;;;;;;7.50;6.80;;;;;;;31.28;32.61;100568.59;78520;277;3645991;-73
2023/06/20 11:25:07;;;;;;;7.50;6.80;;;;;;;31.33;31.83;100564.77;79608;277;3011411;-73
2023/06/20 11:27:44;;;;;;;10.10;7.40;;;;;;;31.38;31.24;100561.63;79016;277;3027979;-73
2023/06/20 11:30:25;;;;;;;11.20;7.70;;;;;;;31.41;31.27;100557.71;78992;277;3027024;-72
2023/06/20 11:33:09;;;;;;;9.90;7.40;;;;;;;31.31;31.82;100556.89;79038;278;3027321;-72
2023/06/20 11:35:51;;;;;;;7.50;6.70;;;;;;;31.41;33.04;100557.01;79025;277;3027068;-72
2023/06/20 11:38:28;;;;;;;8.10;7.10;;;;;;;31.63;33.03;100558.85;79003;270;3027404;-72
2023/06/20 11:41:07;;;;;;;7.90;6.80;;;;;;;31.79;31.02;100548.16;78930;277;3028689;-72
2023/06/20 11:43:43;;;;;;;7.40;6.80;;;;;;;31.86;31.39;100550.21;79044;278;3026602;-72
2023/06/20 11:46:19;;;;;;;7.20;6.60;;;;;;;32.05;31.54;100547.37;79021;277;3027394;-72
2023/06/20 11:48:56;;;;;;;7.00;6.40;;;;;;;32.18;31.34;100546.19;79025;277;3027532;-73
2023/06/20 11:51:32;;;;;;;7.20;6.60;;;;;;;32.30;30.51;100548.29;79040;277;3028215;-73
2023/06/20 11:54:12;;;;;;;8.10;6.80;;;;;;;32.34;30.48;100548.07;79010;266;3027103;-73
2023/06/20 11:56:52;;;;;;;8.00;7.00;;;;;;;32.41;30.36;100544.83;78972;277;3027293;-72